Time;durP1;ratioP1;P1;durP2;ratioP2;P2;SDS_P1;SDS_P2;PMS_P1;PMS_P2;Temp;Humidity;BMP_temperature;BMP_pressure;BME280_temperature;BME280_humidity;BME280_pressure;Samples;Min_cycle;Max_cycle;Signal;HPM_P1;HPM_P2
2022/12/16 00:00:28;;;;;;;39.03;25.10;;;;;;;1.93;53.06;100897.13;5074650;28;20094;-69
2022/12/16 00:02:58;;;;;;;38.83;25.15;;;;;;;2.00;53.22;100892.50;5074357;28;20052;-68
2022/12/16 00:05:24;;;;;;;38.08;24.98;;;;;;;2.06;53.21;100885.19;5091248;28;20044;-68
2022/12/16 00:07:51;;;;;;;36.58;24.38;;;;;;;2.11;53.11;100885.88;5094931;28;20036;-69
2022/12/16 00:10:21;;;;;;;38.45;25.25;;;;;;;2.15;53.27;100887.50;5094654;28;20485;-69
2022/12/16 00:12:48;;;;;;;34.78;24.13;;;;;;;2.21;53.13;100889.06;5094625;28;20044;-68
2022/12/16 00:15:17;;;;;;;38.67;24.90;;;;;;;2.26;53.34;100888.94;5078138;28;20453;-69
2022/12/16 00:17:43;;;;;;;35.55;24.40;;;;;;;2.32;53.24;100886.06;5074398;28;20114;-69
2022/12/16 00:20:10;;;;;;;34.08;23.90;;;;;;;2.34;53.11;100882.44;5074259;28;20055;-69
2022/12/16 00:22:37;;;;;;;35.08;24.50;;;;;;;2.38;53.20;100883.19;5074211;28;20090;-69
2022/12/16 00:25:04;;;;;;;44.20;25.15;;;;;;;2.40;53.30;100884.00;5087676;28;20050;-69
2022/12/16 00:27:30;;;;;;;38.92;26.10;;;;;;;2.39;53.28;100883.13;5094415;28;20097;-68
2022/12/16 00:29:57;;;;;;;35.75;25.90;;;;;;;2.43;53.24;100883.88;5093101;28;20589;-69
2022/12/16 00:32:23;;;;;;;37.13;24.88;;;;;;;2.46;53.33;100883.78;5094353;28;20058;-69
2022/12/16 00:34:50;;;;;;;36.65;23.83;;;;;;;2.49;53.36;100883.66;5093677;28;20445;-69
2022/12/16 00:37:17;;;;;;;35.90;24.70;;;;;;;2.52;53.27;100884.41;5094489;28;20040;-68
2022/12/16 00:39:43;;;;;;;37.22;24.83;;;;;;;2.50;53.22;100880.94;5093127;28;20040;-69
2022/12/16 00:42:10;;;;;;;36.92;25.20;;;;;;;2.49;53.30;100887.19;5093186;28;20044;-69
2022/12/16 00:44:36;;;;;;;36.40;24.63;;;;;;;2.51;53.33;100885.34;5094142;28;20041;-69
2022/12/16 00:47:05;;;;;;;37.28;24.80;;;;;;;2.53;53.44;100875.53;5092638;28;20113;-70
2022/12/16 00:49:31;;;;;;;38.17;25.20;;;;;;;2.57;53.43;100883.38;5094130;28;20064;-69
2022/12/16 00:51:58;;;;;;;39.00;25.83;;;;;;;2.60;53.60;100881.47;5091702;28;20052;-69
2022/12/16 00:54:24;;;;;;;34.75;25.20;;;;;;;2.62;53.63;100876.09;5085829;28;20044;-69
2022/12/16 00:56:51;;;;;;;38.85;25.05;;;;;;;2.68;53.73;100875.88;5073582;28;20548;-69
2022/12/16 00:59:17;;;;;;;38.85;25.88;;;;;;;2.71;53.78;100884.56;5072707;28;20052;-69
2022/12/16 01:01:44;;;;;;;35.83;24.55;;;;;;;2.75;53.63;100886.19;5074514;28;20044;-69
2022/12/16 01:04:11;;;;;;;36.35;25.98;;;;;;;2.79;53.70;100884.28;5093946;28;20052;-69
2022/12/16 01:06:37;;;;;;;37.15;24.88;;;;;;;2.82;53.61;100886.81;5094062;28;20482;-68
2022/12/16 01:09:04;;;;;;;40.00;26.30;;;;;;;2.83;53.47;100885.91;5093699;28;20383;-69
2022/12/16 01:11:30;;;;;;;38.80;25.10;;;;;;;2.84;53.50;100880.53;5093697;28;20032;-69
2022/12/16 01:13:58;;;;;;;35.58;24.98;;;;;;;2.87;53.62;100890.16;5093857;28;20062;-69
2022/12/16 01:16:24;;;;;;;36.17;24.42;;;;;;;2.90;53.67;100887.38;5093834;28;20043;-69
2022/12/16 01:18:52;;;;;;;39.35;25.73;;;;;;;2.94;53.70;100891.66;5093742;28;20095;-69
2022/12/16 01:21:21;;;;;;;35.55;24.80;;;;;;;2.96;53.72;100895.09;5093876;28;20044;-70
2022/12/16 01:23:47;;;;;;;34.83;24.58;;;;;;;2.97;53.66;100902.13;5092755;28;20065;-69
2022/12/16 01:26:16;;;;;;;39.63;23.95;;;;;;;2.97;53.79;100902.13;5093686;28;20048;-69
2022/12/16 01:28:43;;;;;;;34.75;25.02;;;;;;;2.98;53.65;100909.22;5093648;28;20066;-70
2022/12/16 01:31:11;;;;;;;36.60;25.55;;;;;;;2.99;53.84;100900.31;5092524;28;20478;-68
2022/12/16 01:33:38;;;;;;;36.45;25.52;;;;;;;3.03;53.71;100909.91;5093361;28;20499;-70
2022/12/16 01:36:07;;;;;;;36.17;25.65;;;;;;;3.06;53.71;100914.22;5093478;28;20052;-69
2022/12/16 01:38:34;;;;;;;40.63;25.65;;;;;;;3.07;53.77;100922.13;5093502;28;20109;-68
2022/12/16 01:41:01;;;;;;;39.70;25.73;;;;;;;3.08;53.81;100929.16;5092784;28;20032;-68
2022/12/16 01:43:32;;;;;;;38.13;27.02;;;;;;;3.12;53.84;100932.53;5093120;28;20459;-68
2022/12/16 01:46:06;;;;;;;36.72;24.80;;;;;;;3.13;53.81;100935.16;5093373;28;20036;-68
2022/12/16 01:48:58;;;;;;;36.10;25.67;;;;;;;3.15;53.91;100935.09;5091166;28;20048;-69
2022/12/16 01:51:37;;;;;;;35.30;25.15;;;;;;;3.18;53.85;100933.16;5073090;28;20560;-69
2022/12/16 01:54:21;;;;;;;36.75;26.60;;;;;;;3.20;53.97;100935.75;5073346;28;20037;-68
2022/12/16 01:56:52;;;;;;;36.38;25.45;;;;;;;3.22;53.96;100944.53;5072982;28;20051;-68
2022/12/16 01:59:24;;;;;;;36.83;26.38;;;;;;;3.23;53.94;100942.75;5080611;28;20050;-68
2022/12/16 02:01:51;;;;;;;38.65;26.17;;;;;;;3.23;53.87;100940.09;5093131;28;20047;-68
2022/12/16 02:04:18;;;;;;;40.80;26.60;;;;;;;3.22;53.99;100941.00;5093293;28;20109;-69
2022/12/16 02:06:44;;;;;;;38.15;26.83;;;;;;;3.19;54.05;100947.31;5093121;28;20044;-69
2022/12/16 02:09:14;;;;;;;40.00;26.98;;;;;;;3.18;54.01;100951.75;5092882;28;20032;-69
2022/12/16 02:11:59;;;;;;;38.45;26.92;;;;;;;3.18;54.11;100958.84;5096981;28;20032;-68
2022/12/16 02:14:57;;;;;;;39.97;27.20;;;;;;;3.17;54.19;100949.16;5094732;28;20040;-69
2022/12/16 02:17:40;;;;;;;41.25;26.08;;;;;;;3.11;54.04;100952.91;5076772;28;20563;-70
2022/12/16 02:20:47;;;;;;;39.42;26.23;;;;;;;3.05;54.13;100961.09;5090678;28;20040;-69
2022/12/16 02:23:46;;;;;;;38.97;26.40;;;;;;;3.06;54.11;100962.84;5088793;28;20074;-70
2022/12/16 02:26:33;;;;;;;40.15;26.40;;;;;;;3.10;54.16;100964.44;5063077;28;20056;-69
2022/12/16 02:29:36;;;;;;;37.72;27.67;;;;;;;3.13;54.45;100960.81;5096098;28;20043;-69
2022/12/16 02:32:21;;;;;;;42.97;27.10;;;;;;;3.17;54.53;100963.28;5096412;28;20040;-69
2022/12/16 02:34:58;;;;;;;38.50;26.95;;;;;;;3.19;54.35;100958.78;5096701;28;20048;-70
2022/12/16 02:37:43;;;;;;;37.70;26.20;;;;;;;3.23;54.33;100958.66;5096699;28;20048;-71
2022/12/16 02:40:20;;;;;;;41.70;26.33;;;;;;;3.24;54.51;100963.91;5095896;28;20040;-70
2022/12/16 02:42:53;;;;;;;42.30;28.90;;;;;;;3.25;54.32;100960.34;5096427;28;20048;-70
2022/12/16 02:45:26;;;;;;;44.30;27.58;;;;;;;3.27;54.25;100961.13;5096515;28;20082;-69
2022/12/16 02:47:53;;;;;;;45.22;29.90;;;;;;;3.31;54.44;100961.88;5096694;28;20124;-70
2022/12/16 02:50:33;;;;;;;39.20;27.77;;;;;;;3.32;54.59;100967.13;5077596;28;20040;-69
2022/12/16 02:53:01;;;;;;;42.72;27.42;;;;;;;3.35;54.52;100968.81;5075915;28;20493;-68
2022/12/16 02:55:56;;;;;;;41.33;29.27;;;;;;;3.37;54.56;100964.28;5076011;28;20040;-69
2022/12/16 02:58:45;;;;;;;41.20;28.08;;;;;;;3.38;54.50;100974.84;5090906;28;20063;-69
2022/12/16 03:01:24;;;;;;;43.45;28.63;;;;;;;3.41;54.48;100982.69;5096514;28;20040;-70
2022/12/16 03:03:57;;;;;;;43.88;29.15;;;;;;;3.44;54.64;100984.38;5095906;28;20115;-69
2022/12/16 03:06:26;;;;;;;39.10;28.02;;;;;;;3.46;54.55;100979.84;5096065;28;20036;-69
2022/12/16 03:08:58;;;;;;;44.60;27.48;;;;;;;3.46;54.74;100971.91;5095085;28;20040;-69
2022/12/16 03:11:28;;;;;;;48.75;29.60;;;;;;;3.48;54.54;100970.03;5096031;28;20048;-70
2022/12/16 03:13:56;;;;;;;42.95;28.95;;;;;;;3.47;54.64;100969.19;5095830;28;20040;-69
2022/12/16 03:16:28;;;;;;;43.20;29.67;;;;;;;3.47;54.56;100976.28;5095762;28;20048;-70
2022/12/16 03:19:00;;;;;;;44.10;29.63;;;;;;;3.47;54.47;100968.31;5079391;28;20047;-69
2022/12/16 03:21:33;;;;;;;46.70;31.05;;;;;;;3.47;54.74;100973.63;5094633;28;20036;-69
2022/12/16 03:24:02;;;;;;;43.80;30.85;;;;;;;3.49;54.71;100969.13;5095756;28;20051;-69
2022/12/16 03:26:45;;;;;;;45.45;30.77;;;;;;;3.49;54.79;100977.09;5095653;28;20036;-69
2022/12/16 03:29:25;;;;;;;42.30;29.77;;;;;;;3.50;54.77;100982.34;5075374;28;20055;-69
2022/12/16 03:32:00;;;;;;;46.05;30.77;;;;;;;3.51;54.64;100985.84;5075282;28;20044;-68
2022/12/16 03:34:36;;;;;;;44.88;30.23;;;;;;;3.50;54.77;100981.47;5075394;28;20052;-68
2022/12/16 03:37:06;;;;;;;45.38;32.08;;;;;;;3.47;54.65;100986.91;5076915;28;20054;-69
2022/12/16 03:39:39;;;;;;;48.13;31.58;;;;;;;3.45;54.83;100986.09;5095410;28;20501;-68
2022/12/16 03:42:06;;;;;;;48.38;31.17;;;;;;;3.43;54.68;100986.16;5095297;28;20047;-69
2022/12/16 03:44:34;;;;;;;49.83;30.73;;;;;;;3.43;54.82;100993.25;5095591;28;20093;-68
2022/12/16 03:47:01;;;;;;;45.30;30.98;;;;;;;3.44;54.96;100989.69;5094530;28;20573;-68
2022/12/16 03:49:28;;;;;;;43.20;30.33;;;;;;;3.46;54.74;101001.09;5095287;28;20036;-68
2022/12/16 03:51:55;;;;;;;47.20;32.10;;;;;;;3.46;55.08;101001.09;5093853;28;20044;-68
2022/12/16 03:54:22;;;;;;;46.92;30.45;;;;;;;3.47;54.96;100998.38;5095199;28;20081;-69
2022/12/16 03:56:48;;;;;;;44.80;30.65;;;;;;;3.49;55.00;100999.19;5094945;28;20085;-69
2022/12/16 03:59:15;;;;;;;44.13;31.33;;;;;;;3.52;54.93;101000.84;5094815;28;20048;-69
2022/12/16 04:01:42;;;;;;;42.90;29.02;;;;;;;3.53;54.98;101002.59;5094952;28;20043;-69
2022/12/16 04:04:09;;;;;;;44.38;31.00;;;;;;;3.56;55.04;100999.81;5094974;28;20056;-69
2022/12/16 04:06:35;;;;;;;40.72;30.23;;;;;;;3.58;55.04;101005.06;5090387;28;20437;-68
2022/12/16 04:09:02;;;;;;;41.15;29.75;;;;;;;3.58;54.93;101005.94;5074448;28;20090;-68
2022/12/16 04:25:31;;;;;;;48.78;32.03;;;;;;;3.54;55.09;101035.31;5094347;28;20040;-69
2022/12/16 04:27:57;;;;;;;48.15;31.98;;;;;;;3.48;55.13;101034.63;5094846;28;20040;-68
2022/12/16 04:30:26;;;;;;;46.63;31.58;;;;;;;3.47;55.11;101040.00;5094568;28;20458;-68
